Time;durP1;ratioP1;P1;durP2;ratioP2;P2;SDS_P1;SDS_P2;PMS_P1;PMS_P2;Temp;Humidity;BMP_temperature;BMP_pressure;BME280_temperature;BME280_humidity;BME280_pressure;Samples;Min_cycle;Max_cycle;Signal;HPM_P1;HPM_P2
2022/11/26 00:00:17;;;;;;;38.25;17.05;;;;;;;5.10;100.00;102127.59;4858924;29;20713;-48
2022/11/26 00:02:43;;;;;;;35.97;17.85;;;;;;;5.01;100.00;102139.91;4857363;29;20196;-48
2022/11/26 00:05:12;;;;;;;40.65;17.90;;;;;;;5.04;100.00;102134.63;4864128;29;20190;-49
2022/11/26 00:07:38;;;;;;;38.88;17.13;;;;;;;5.00;100.00;102132.84;4858965;29;20638;-48
2022/11/26 00:10:07;;;;;;;37.90;16.35;;;;;;;4.94;100.00;102137.25;4864489;29;20217;-47
2022/11/26 00:12:33;;;;;;;34.92;16.63;;;;;;;4.98;100.00;102134.59;4863394;29;20731;-48
2022/11/26 00:15:09;;;;;;;33.58;15.05;;;;;;;4.89;100.00;102132.78;4863800;29;20281;-47
2022/11/26 00:17:35;;;;;;;51.17;17.63;;;;;;;4.98;100.00;102143.44;4860644;29;20213;-47
2022/11/26 00:20:00;;;;;;;35.25;15.70;;;;;;;4.90;100.00;102138.09;4865732;29;20200;-48
2022/11/26 00:22:34;;;;;;;39.97;16.50;;;;;;;4.89;100.00;102140.75;4866073;29;20662;-48
2022/11/26 00:25:00;;;;;;;38.55;15.05;;;;;;;4.87;100.00;102147.81;4860489;29;20178;-48
2022/11/26 00:27:26;;;;;;;32.00;14.40;;;;;;;4.84;100.00;102161.06;4866338;29;20228;-47
2022/11/26 00:29:53;;;;;;;25.10;13.40;;;;;;;4.89;100.00;102154.91;4859267;29;20210;-47
2022/11/26 00:32:21;;;;;;;31.30;14.13;;;;;;;4.83;100.00;102162.84;4862738;29;20186;-47
2022/11/26 00:34:47;;;;;;;40.33;14.90;;;;;;;4.86;100.00;102170.81;4863185;29;20449;-48
2022/11/26 00:37:26;;;;;;;28.08;13.25;;;;;;;4.84;100.00;102169.94;4861121;29;20249;-47
2022/11/26 00:39:53;;;;;;;31.95;13.27;;;;;;;4.77;100.00;102175.16;4865383;29;20605;-49
2022/11/26 00:42:19;;;;;;;36.28;14.18;;;;;;;4.74;100.00;102171.63;4858436;29;20680;-48
2022/11/26 00:44:44;;;;;;;24.55;12.68;;;;;;;4.74;100.00;102176.94;4864849;29;20288;-48
2022/11/26 00:47:10;;;;;;;30.55;12.85;;;;;;;4.74;100.00;102168.97;4858771;29;20690;-48
2022/11/26 00:49:36;;;;;;;31.17;13.50;;;;;;;4.49;100.00;102173.19;4859964;29;20210;-47
2022/11/26 00:52:02;;;;;;;28.88;12.80;;;;;;;4.51;100.00;102176.75;4863629;29;20201;-49
2022/11/26 00:54:28;;;;;;;23.58;11.77;;;;;;;4.57;100.00;102177.66;4858688;29;20190;-47
2022/11/26 00:56:54;;;;;;;21.02;11.55;;;;;;;4.54;100.00;102181.19;4862935;29;20324;-47
2022/11/26 00:59:21;;;;;;;29.73;12.95;;;;;;;4.48;100.00;102190.00;4862589;29;20356;-47
2022/11/26 01:01:47;;;;;;;30.38;12.35;;;;;;;4.53;100.00;102193.56;4860273;29;20289;-48
2022/11/26 01:04:12;;;;;;;31.35;12.43;;;;;;;4.51;100.00;102202.41;4862024;29;20278;-42
2022/11/26 01:06:42;;;;;;;28.92;13.15;;;;;;;4.60;100.00;102209.56;4861417;29;20534;-41
2022/11/26 01:09:19;;;;;;;38.28;14.45;;;;;;;4.54;100.00;102200.66;4866984;29;20194;-44
2022/11/26 01:11:46;;;;;;;32.10;13.88;;;;;;;4.61;100.00;102213.97;4863899;29;20216;-43
2022/11/26 01:14:16;;;;;;;31.30;13.77;;;;;;;4.53;100.00;102214.81;4863172;29;20209;-41
2022/11/26 01:16:43;;;;;;;33.72;13.48;;;;;;;4.59;100.00;102219.31;4867141;29;20277;-45
2022/11/26 01:19:11;;;;;;;27.88;11.73;;;;;;;4.62;100.00;102221.97;4861734;29;20209;-44
2022/11/26 01:21:37;;;;;;;28.95;12.35;;;;;;;4.53;100.00;102222.78;4859102;29;20608;-43
2022/11/26 01:24:03;;;;;;;24.08;11.23;;;;;;;4.51;100.00;102232.47;4861693;29;20291;-43
2022/11/26 01:26:47;;;;;;;23.67;11.07;;;;;;;4.42;100.00;102229.75;4865145;29;20714;-43
2022/11/26 01:29:17;;;;;;;29.40;12.05;;;;;;;4.15;100.00;102235.63;4861186;29;20190;-43
2022/11/26 01:31:44;;;;;;;21.55;10.30;;;;;;;4.15;100.00;102234.75;4857904;29;20249;-40
2022/11/26 01:34:09;;;;;;;24.58;11.45;;;;;;;3.87;100.00;102231.78;4859425;29;20258;-41
2022/11/26 01:36:38;;;;;;;19.77;10.00;;;;;;;3.85;100.00;102241.50;4860475;29;20193;-43
2022/11/26 01:39:16;;;;;;;23.05;10.45;;;;;;;3.83;100.00;102232.66;4864110;29;20218;-42
2022/11/26 01:41:43;;;;;;;18.80;9.20;;;;;;;3.83;100.00;102246.78;4861170;29;20274;-44
2022/11/26 01:44:19;;;;;;;14.48;8.93;;;;;;;3.83;100.00;102237.94;4861030;29;20228;-42
2022/11/26 01:46:48;;;;;;;19.38;9.43;;;;;;;3.65;100.00;102243.88;4862563;29;20257;-43
2022/11/26 01:49:15;;;;;;;13.93;8.45;;;;;;;3.51;100.00;102246.34;4864359;29;20198;-44
2022/11/26 01:51:40;;;;;;;17.00;9.30;;;;;;;3.38;100.00;102253.22;4865275;29;20205;-41
2022/11/26 01:54:07;;;;;;;15.48;8.43;;;;;;;3.35;100.00;102252.31;4859642;29;20186;-43
2022/11/26 01:56:48;;;;;;;19.90;8.40;;;;;;;3.38;100.00;102247.94;4865219;29;20272;-40
2022/11/26 01:59:14;;;;;;;13.70;8.70;;;;;;;3.31;100.00;102264.63;4867570;29;20280;-43
2022/11/26 02:01:39;;;;;;;13.48;8.15;;;;;;;3.28;100.00;102264.59;4863275;29;20282;-43
2022/11/26 02:04:11;;;;;;;18.88;8.75;;;;;;;3.13;100.00;102262.59;4862062;29;20521;-43
2022/11/26 02:06:37;;;;;;;20.17;8.95;;;;;;;3.12;100.00;102266.09;4864546;29;20189;-43
2022/11/26 02:09:07;;;;;;;15.43;8.65;;;;;;;3.07;100.00;102270.44;4864007;29;20295;-41
2022/11/26 02:11:32;;;;;;;20.67;9.80;;;;;;;3.13;100.00;102269.63;4864484;29;20206;-44
2022/11/26 02:14:02;;;;;;;16.60;9.30;;;;;;;3.29;100.00;102275.19;4863756;29;20217;-43
2022/11/26 02:16:37;;;;;;;14.80;9.13;;;;;;;3.19;100.00;102275.94;4861709;29;20198;-43
2022/11/26 02:19:46;;;;;;;13.32;8.70;;;;;;;3.12;100.00;102274.03;4863652;29;20220;-42
2022/11/26 02:22:24;;;;;;;17.40;9.98;;;;;;;3.27;100.00;102278.69;4859637;29;20201;-44
2022/11/26 02:25:02;;;;;;;18.50;10.25;;;;;;;3.33;100.00;102283.19;4863731;29;20229;-40
2022/11/26 02:27:37;;;;;;;20.40;10.68;;;;;;;3.41;100.00;102281.53;4862716;29;20617;-45
2022/11/26 02:30:06;;;;;;;27.73;12.35;;;;;;;3.50;100.00;102290.53;4862156;29;20569;-42
2022/11/26 02:32:58;;;;;;;24.70;12.43;;;;;;;3.45;100.00;102293.94;4862540;29;20341;-43
2022/11/26 02:35:45;;;;;;;26.33;11.98;;;;;;;3.49;100.00;102287.84;4858921;29;20182;-43
2022/11/26 02:38:17;;;;;;;21.70;10.95;;;;;;;3.44;100.00;102286.88;4864652;29;20234;-42
2022/11/26 02:40:43;;;;;;;22.50;10.52;;;;;;;3.48;100.00;102289.59;4860444;29;20683;-44
2022/11/26 02:43:08;;;;;;;33.70;13.00;;;;;;;3.44;100.00;102293.06;4858814;29;20268;-41
2022/11/26 02:45:38;;;;;;;28.77;12.27;;;;;;;3.39;100.00;102297.41;4861818;29;20651;-41
2022/11/26 02:48:10;;;;;;;26.33;12.40;;;;;;;3.47;100.00;102301.06;4861579;29;20207;-43
2022/11/26 02:50:40;;;;;;;23.80;11.60;;;;;;;3.47;100.00;102297.53;4865761;29;20210;-45
2022/11/26 02:53:07;;;;;;;38.63;9.13;;;;;;;3.23;100.00;102308.63;4865289;28;20896;-44
2022/11/26 02:55:38;;;;;;;32.20;11.27;;;;;;;3.32;100.00;102313.19;4856505;29;20182;-44
2022/11/26 02:58:05;;;;;;;18.77;10.23;;;;;;;3.41;100.00;102322.19;4859289;29;20205;-43
2022/11/26 03:00:33;;;;;;;34.15;10.88;;;;;;;3.45;100.00;102320.44;4859902;29;20194;-45
2022/11/26 03:03:07;;;;;;;23.05;12.50;;;;;;;3.50;100.00;102324.97;4859770;29;20405;-41
2022/11/26 03:05:34;;;;;;;43.92;12.00;;;;;;;3.67;100.00;102326.94;4859892;29;20679;-42
2022/11/26 03:08:01;;;;;;;67.93;12.88;;;;;;;3.74;100.00;102323.53;4860636;29;20302;-43
2022/11/26 03:10:29;;;;;;;28.92;11.63;;;;;;;3.75;100.00;102324.44;4864621;29;20304;-41
2022/11/26 03:12:54;;;;;;;30.45;11.60;;;;;;;3.76;100.00;102321.81;4862017;29;20190;-45
2022/11/26 03:15:20;;;;;;;21.55;11.57;;;;;;;3.74;100.00;102319.97;4863117;29;20194;-43
2022/11/26 03:17:46;;;;;;;33.30;11.80;;;;;;;3.71;100.00;102326.13;4864944;28;20695;-42
2022/11/26 03:20:12;;;;;;;28.05;11.77;;;;;;;3.75;100.00;102340.34;4862672;29;20256;-41
2022/11/26 03:22:38;;;;;;;24.23;12.50;;;;;;;3.65;100.00;102341.94;4870610;29;20264;-43
2022/11/26 03:25:05;;;;;;;64.45;12.43;;;;;;;3.69;100.00;102349.97;4863160;29;20194;-43
2022/11/26 03:27:30;;;;;;;39.63;11.43;;;;;;;3.66;100.00;102351.69;4866425;29;20225;-46
2022/11/26 03:29:56;;;;;;;60.35;11.65;;;;;;;3.72;100.00;102349.13;4865501;29;20206;-45
2022/11/26 03:32:22;;;;;;;26.40;10.32;;;;;;;3.69;100.00;102363.22;4858019;29;20204;-45
2022/11/26 03:34:47;;;;;;;63.70;12.20;;;;;;;3.70;100.00;102357.06;4860017;29;20196;-46
2022/11/26 03:37:13;;;;;;;54.40;11.57;;;;;;;3.70;100.00;102362.34;4860665;29;20726;-47
2022/11/26 03:39:39;;;;;;;36.38;10.63;;;;;;;3.74;100.00;102367.69;4856114;29;20474;-45
2022/11/26 03:42:05;;;;;;;24.48;9.85;;;;;;;3.78;100.00;102358.91;4863233;29;20240;-46
2022/11/26 03:44:31;;;;;;;21.92;9.70;;;;;;;3.80;100.00;102350.13;4861868;29;20192;-46
2022/11/26 03:46:56;;;;;;;17.10;8.60;;;;;;;3.78;100.00;102345.66;4858996;29;20190;-46
2022/11/26 03:49:22;;;;;;;21.40;8.18;;;;;;;3.87;100.00;102356.38;4858139;29;20188;-48
2022/11/26 03:51:47;;;;;;;19.10;8.40;;;;;;;3.87;100.00;102359.03;4865963;29;20658;-48
2022/11/26 03:54:13;;;;;;;42.63;9.80;;;;;;;3.91;100.00;102364.44;4855869;29;20194;-44
2022/11/26 03:56:39;;;;;;;51.50;9.85;;;;;;;3.92;100.00;102371.50;4863457;29;20232;-45
2022/11/26 03:59:04;;;;;;;11.52;7.55;;;;;;;3.96;100.00;102374.19;4860634;29;20241;-49
2022/11/26 04:01:30;;;;;;;18.73;8.10;;;;;;;3.98;100.00;102370.72;4860803;29;20574;-48
2022/11/26 04:03:55;;;;;;;45.70;9.80;;;;;;;3.97;100.00;102382.19;4862958;29;20194;-47
2022/11/26 04:06:21;;;;;;;31.73;9.27;;;;;;;4.03;100.00;102384.91;4862891;29;20186;-47
2022/11/26 04:08:46;;;;;;;47.10;10.48;;;;;;;4.06;100.00;102371.69;4861696;29;20399;-48
2022/11/26 04:11:12;;;;;;;29.17;9.70;;;;;;;4.10;100.00;102375.28;4862209;29;20688;-48
2022/11/26 04:13:38;;;;;;;26.00;9.38;;;;;;;4.11;100.00;102379.69;4858822;29;20255;-46
2022/11/26 04:16:04;;;;;;;59.38;11.32;;;;;;;4.17;100.00;102386.88;4870805;29;20189;-46
2022/11/26 04:18:29;;;;;;;101.25;12.13;;;;;;;4.17;100.00;102387.75;4861181;29;20215;-47
2022/11/26 04:20:55;;;;;;;30.40;10.68;;;;;;;4.20;100.00;102387.81;4862823;29;20675;-47
2022/11/26 04:23:20;;;;;;;98.07;12.50;;;;;;;4.27;100.00;102387.00;4860833;29;20186;-46
2022/11/26 04:25:46;;;;;;;171.55;15.40;;;;;;;4.29;100.00;102385.28;4855657;29;20190;-48
2022/11/26 04:28:13;;;;;;;67.82;10.80;;;;;;;4.30;100.00;102388.81;4856858;29;20297;-46
2022/11/26 04:30:40;;;;;;;52.72;11.75;;;;;;;4.37;100.00;102395.97;4856648;29;20217;-47
2022/11/26 04:33:05;;;;;;;85.18;12.13;;;;;;;4.42;100.00;102383.66;4861464;29;20253;-47
2022/11/26 04:35:31;;;;;;;58.08;11.55;;;;;;;4.45;100.00;102402.25;4867466;29;20190;-44
2022/11/26 04:37:56;;;;;;;54.67;11.35;;;;;;;4.51;100.00;102393.50;4856260;29;20198;-46
2022/11/26 04:40:22;;;;;;;79.60;12.38;;;;;;;4.53;100.00;102400.59;4856995;29;20681;-46
2022/11/26 04:42:47;;;;;;;161.73;15.57;;;;;;;4.58;100.00;102399.78;4861170;29;20197;-44
2022/11/26 04:45:13;;;;;;;72.53;12.73;;;;;;;4.63;100.00;102408.66;4860536;29;20241;-49
2022/11/26 04:47:39;;;;;;;129.52;14.90;;;;;;;4.63;100.00;102417.50;4867395;29;20234;-45
2022/11/26 04:50:05;;;;;;;75.22;13.32;;;;;;;4.66;100.00;102403.41;4858870;29;20207;-46
2022/11/26 04:52:30;;;;;;;36.90;12.30;;;;;;;4.72;100.00;102414.06;4865356;29;20683;-47
2022/11/26 04:54:56;;;;;;;44.15;13.82;;;;;;;4.71;100.00;102423.81;4862482;29;20194;-43
2022/11/26 04:57:21;;;;;;;24.55;10.95;;;;;;;4.76;100.00;102429.16;4866128;29;20567;-48
2022/11/26 04:59:47;;;;;;;99.93;16.10;;;;;;;4.79;100.00;102428.31;4872289;29;20182;-44
2022/11/26 05:02:12;;;;;;;109.32;15.82;;;;;;;4.80;100.00;102428.34;4865960;29;20198;-44
2022/11/26 05:04:38;;;;;;;99.10;15.00;;;;;;;4.88;100.00;102436.41;4860681;29;20193;-47
2022/11/26 05:07:04;;;;;;;67.90;13.63;;;;;;;4.88;100.00;102439.06;4864465;29;20683;-49
2022/11/26 05:09:29;;;;;;;138.13;16.77;;;;;;;4.94;100.00;102448.00;4863044;29;20289;-48
2022/11/26 05:11:55;;;;;;;103.68;16.70;;;;;;;5.02;100.00;102452.47;4862021;29;20198;-44
2022/11/26 05:14:21;;;;;;;72.38;15.90;;;;;;;5.05;100.00;102441.88;4865215;29;20563;-45
2022/11/26 05:16:46;;;;;;;114.25;16.23;;;;;;;5.07;100.00;102453.41;4863889;29;20217;-46
2022/11/26 05:19:12;;;;;;;162.98;18.40;;;;;;;5.13;100.00;102458.81;4869299;29;20564;-43
2022/11/26 05:21:37;;;;;;;38.50;13.55;;;;;;;5.21;100.00;102449.16;4867177;29;20562;-45
2022/11/26 05:24:03;;;;;;;94.65;16.42;;;;;;;5.20;100.00;102451.78;4862727;29;20186;-46
2022/11/26 05:26:28;;;;;;;145.57;19.08;;;;;;;5.25;100.00;102460.72;4864639;29;20682;-47
2022/11/26 05:28:54;;;;;;;71.18;14.88;;;;;;;5.27;100.00;102465.16;4864456;29;20627;-43
2022/11/26 05:31:19;;;;;;;75.00;16.55;;;;;;;5.32;100.00;102466.09;4861249;29;20208;-43
2022/11/26 05:33:45;;;;;;;73.75;16.13;;;;;;;5.34;100.00;102463.44;4863050;29;20194;-45
2022/11/26 05:36:11;;;;;;;58.33;14.90;;;;;;;5.40;100.00;102470.56;4861932;29;20279;-51
2022/11/26 05:38:36;;;;;;;90.07;16.80;;;;;;;5.41;100.00;102469.72;4862894;29;20292;-46
2022/11/26 05:41:02;;;;;;;85.35;17.27;;;;;;;5.42;100.00;102471.47;4866441;29;20248;-47
2022/11/26 05:43:27;;;;;;;104.95;16.15;;;;;;;5.44;100.00;102480.38;4869402;29;20197;-46
2022/11/26 05:45:53;;;;;;;70.97;16.98;;;;;;;5.46;100.00;102473.31;4860104;29;20189;-46
2022/11/26 05:48:18;;;;;;;115.72;17.63;;;;;;;5.52;100.00;102476.91;4865812;29;20241;-45
2022/11/26 05:50:44;;;;;;;92.45;17.35;;;;;;;5.52;100.00;102479.56;4865619;29;20213;-45
2022/11/26 05:53:10;;;;;;;72.13;16.58;;;;;;;5.54;100.00;102487.56;4864764;29;20191;-45
2022/11/26 05:55:35;;;;;;;174.13;19.98;;;;;;;5.60;100.00;102492.03;4870060;29;20189;-43
2022/11/26 05:58:01;;;;;;;55.88;15.95;;;;;;;5.61;100.00;102488.50;4866935;29;20947;-44
2022/11/26 06:00:26;;;;;;;116.03;19.45;;;;;;;5.60;100.00;102492.03;4861117;29;20198;-47
2022/11/26 06:02:52;;;;;;;69.70;17.45;;;;;;;5.63;100.00;102492.06;4863725;29;20197;-48
2022/11/26 06:05:18;;;;;;;121.53;20.38;;;;;;;5.65;100.00;102495.63;4866379;29;20190;-42
2022/11/26 06:07:43;;;;;;;100.97;19.20;;;;;;;5.67;100.00;102493.88;4862110;29;20213;-48
2022/11/26 06:10:09;;;;;;;67.80;18.70;;;;;;;5.71;100.00;102499.25;4872884;29;20212;-45
2022/11/26 06:12:35;;;;;;;110.93;18.98;;;;;;;5.74;100.00;102493.94;4854848;29;20280;-47
2022/11/26 06:15:00;;;;;;;108.68;20.92;;;;;;;5.72;100.00;102501.00;4860010;29;20285;-47
2022/11/26 06:17:26;;;;;;;77.60;18.33;;;;;;;5.74;100.00;102499.25;4864458;29;20261;-44
2022/11/26 06:19:51;;;;;;;90.85;19.20;;;;;;;5.76;100.00;102497.50;4862219;29;20201;-44
2022/11/26 06:22:17;;;;;;;72.85;18.45;;;;;;;5.77;100.00;102506.38;4863888;28;20197;-45
2022/11/26 06:24:43;;;;;;;91.68;19.08;;;;;;;5.76;100.00;102510.78;4863838;29;20186;-50
2022/11/26 06:27:08;;;;;;;154.25;21.20;;;;;;;5.77;100.00;102509.03;4863656;29;20245;-45
2022/11/26 06:29:34;;;;;;;123.78;21.48;;;;;;;5.78;100.00;102503.72;4867163;29;20603;-46
2022/11/26 06:31:59;;;;;;;59.30;18.10;;;;;;;5.83;100.00;102516.19;4864232;29;20539;-47
2022/11/26 06:34:25;;;;;;;87.50;21.95;;;;;;;5.82;100.00;102507.31;4859764;29;20243;-46
2022/11/26 06:36:50;;;;;;;172.13;25.10;;;;;;;5.80;100.00;102513.50;4861363;29;20217;-45
2022/11/26 06:39:16;;;;;;;126.55;21.02;;;;;;;5.77;100.00;102523.25;4862877;29;20249;-44
2022/11/26 06:41:41;;;;;;;104.97;21.08;;;;;;;5.80;100.00;102524.16;4861035;29;20265;-49
2022/11/26 06:44:07;;;;;;;106.78;21.50;;;;;;;5.78;100.00;102540.97;4862437;29;20290;-45
2022/11/26 06:46:34;;;;;;;149.32;24.55;;;;;;;5.75;100.00;102546.25;4861959;29;20560;-48
2022/11/26 06:49:02;;;;;;;78.50;22.98;;;;;;;5.82;100.00;102536.56;4863662;29;20210;-45
2022/11/26 06:51:27;;;;;;;115.85;24.75;;;;;;;5.73;100.00;102542.69;4861458;29;20210;-46
2022/11/26 06:53:53;;;;;;;150.82;26.88;;;;;;;5.73;100.00;102550.69;4858864;29;20193;-45
2022/11/26 06:56:19;;;;;;;95.10;23.75;;;;;;;5.65;100.00;102555.03;4869509;29;20217;-46
2022/11/26 06:58:46;;;;;;;88.10;23.63;;;;;;;5.63;100.00;102553.22;4865276;29;20575;-46
2022/11/26 07:01:17;;;;;;;97.65;23.75;;;;;;;5.61;100.00;102562.97;4864747;29;20221;-50
2022/11/26 07:03:43;;;;;;;74.75;23.25;;;;;;;5.57;100.00;102560.28;4862225;29;20192;-45
2022/11/26 07:06:20;;;;;;;79.72;23.95;;;;;;;5.54;100.00;102570.88;4860387;29;20603;-45
2022/11/26 07:08:47;;;;;;;75.43;23.73;;;;;;;5.51;100.00;102572.59;4864381;29;20210;-44
2022/11/26 07:11:13;;;;;;;83.55;24.55;;;;;;;5.50;100.00;102570.81;4863968;29;20213;-43
2022/11/26 07:13:38;;;;;;;88.20;26.60;;;;;;;5.45;100.00;102570.78;4862669;29;20193;-46
2022/11/26 07:16:05;;;;;;;83.45;26.40;;;;;;;5.45;100.00;102569.88;4862327;29;20201;-46
2022/11/26 07:18:31;;;;;;;71.85;24.60;;;;;;;5.43;100.00;102574.28;4860428;29;20582;-43
2022/11/26 07:20:57;;;;;;;72.80;24.88;;;;;;;5.45;100.00;102572.53;4868007;29;20300;-45
2022/11/26 07:23:22;;;;;;;80.63;26.73;;;;;;;5.40;100.00;102569.84;4867391;29;20208;-46
2022/11/26 07:25:48;;;;;;;80.03;26.88;;;;;;;5.36;100.00;102574.22;4861348;29;20197;-47
2022/11/26 07:28:13;;;;;;;60.33;24.50;;;;;;;5.43;100.00;102582.25;4862491;29;20231;-49
2022/11/26 07:30:39;;;;;;;79.75;28.13;;;;;;;5.35;100.00;102582.16;4862967;29;20224;-47
2022/11/26 07:33:04;;;;;;;80.72;27.67;;;;;;;5.27;100.00;102576.78;4864152;29;20204;-45
2022/11/26 07:35:31;;;;;;;68.65;26.70;;;;;;;5.30;100.00;102595.41;4860703;29;20268;-46
2022/11/26 07:37:57;;;;;;;74.32;27.95;;;;;;;5.31;100.00;102590.97;4863298;29;20213;-46
2022/11/26 07:40:23;;;;;;;70.50;26.90;;;;;;;5.26;100.00;102605.97;4860665;29;20189;-47
2022/11/26 07:42:49;;;;;;;64.13;25.90;;;;;;;5.21;100.00;102602.38;4858982;29;20284;-44
2022/11/26 07:45:14;;;;;;;43.70;22.77;;;;;;;5.29;100.00;102603.34;4861597;29;20295;-44
2022/11/26 07:47:40;;;;;;;54.85;25.38;;;;;;;5.16;100.00;102602.31;4860103;29;20217;-47
2022/11/26 07:50:06;;;;;;;52.30;23.65;;;;;;;5.15;100.00;102611.16;4858869;29;20198;-43
2022/11/26 07:52:32;;;;;;;54.22;25.20;;;;;;;5.10;100.00;102607.56;4858786;29;20216;-44
2022/11/26 07:54:57;;;;;;;51.33;24.08;;;;;;;5.05;100.00;102612.81;4858172;29;20233;-43
2022/11/26 07:57:24;;;;;;;52.83;24.75;;;;;;;5.00;100.00;102609.19;4867339;29;20210;-45
2022/11/26 07:59:49;;;;;;;56.60;24.55;;;;;;;5.01;100.00;102612.72;4864731;29;20181;-46
2022/11/26 08:02:15;;;;;;;60.60;26.52;;;;;;;5.02;100.00;102617.19;4862228;29;20237;-46
2022/11/26 08:04:41;;;;;;;48.25;24.60;;;;;;;5.05;100.00;102622.53;4859751;29;20293;-46
2022/11/26 08:07:07;;;;;;;35.15;20.08;;;;;;;5.09;100.00;102627.00;4863078;29;20694;-49
2022/11/26 08:09:33;;;;;;;56.50;33.30;;;;;;;5.00;100.00;102621.56;4855553;29;20214;-43
2022/11/26 08:11:59;;;;;;;54.45;30.17;;;;;;;4.99;100.00;102638.41;4861956;29;20189;-47
2022/11/26 08:14:24;;;;;;;46.22;27.67;;;;;;;5.06;100.00;102646.47;4858542;29;20196;-46
2022/11/26 08:16:50;;;;;;;43.42;26.83;;;;;;;5.00;100.00;102630.44;4858593;29;20174;-47
2022/11/26 08:19:15;;;;;;;43.65;24.75;;;;;;;4.88;100.00;102633.81;4862018;29;20249;-48
2022/11/26 08:21:41;;;;;;;40.35;23.63;;;;;;;4.90;100.00;102642.72;4858877;29;20182;-48
2022/11/26 08:24:12;;;;;;;41.88;23.98;;;;;;;4.85;100.00;102644.38;4859964;28;20202;-46
2022/11/26 08:26:38;;;;;;;43.83;23.02;;;;;;;4.83;100.00;102650.53;4856518;29;20198;-46
2022/11/26 08:29:03;;;;;;;40.63;21.55;;;;;;;4.82;100.00;102636.38;4860633;29;20781;-47
2022/11/26 08:31:29;;;;;;;41.15;22.70;;;;;;;4.79;100.00;102649.63;4866481;29;20228;-48
2022/11/26 08:33:56;;;;;;;37.47;22.58;;;;;;;4.85;100.00;102654.13;4856417;29;20999;-47
2022/11/26 08:36:22;;;;;;;39.22;22.70;;;;;;;4.86;100.00;102647.97;4859011;29;20608;-46
2022/11/26 08:38:47;;;;;;;27.00;18.60;;;;;;;4.92;100.00;102645.41;4861286;29;20210;-47
2022/11/26 08:41:13;;;;;;;40.92;22.65;;;;;;;4.87;100.00;102647.94;4879135;29;20895;-47
2022/11/26 08:43:39;;;;;;;40.47;21.48;;;;;;;4.89;100.00;102646.22;4865623;29;20674;-45
2022/11/26 08:46:05;;;;;;;37.90;20.55;;;;;;;4.91;100.00;102644.47;4863609;29;20233;-46
2022/11/26 08:48:32;;;;;;;45.90;22.20;;;;;;;4.89;100.00;102647.97;4864023;29;20229;-47
2022/11/26 08:50:59;;;;;;;33.45;19.33;;;;;;;4.96;100.00;102657.81;4860351;29;20630;-49
2022/11/26 08:53:26;;;;;;;43.33;22.13;;;;;;;4.93;100.00;102650.72;4862079;29;20210;-48
2022/11/26 08:55:52;;;;;;;40.65;21.17;;;;;;;4.93;100.00;102657.78;4878518;28;20269;-47
2022/11/26 08:58:18;;;;;;;36.17;21.35;;;;;;;4.95;100.00;102656.94;4862343;29;20218;-46
2022/11/26 09:00:43;;;;;;;38.45;21.80;;;;;;;4.93;100.00;102657.78;4864492;29;20194;-49
2022/11/26 09:03:09;;;;;;;34.20;20.60;;;;;;;4.97;100.00;102670.25;4872077;29;20269;-43
2022/11/26 09:05:34;;;;;;;33.47;21.10;;;;;;;4.90;100.00;102663.94;4861179;29;20741;-45
2022/11/26 09:08:00;;;;;;;38.53;21.70;;;;;;;4.92;100.00;102654.25;4866495;29;20252;-44
2022/11/26 09:10:25;;;;;;;32.17;19.70;;;;;;;5.02;100.00;102665.00;4863085;29;20289;-45
2022/11/26 09:12:51;;;;;;;32.67;18.77;;;;;;;5.11;100.00;102665.13;4861600;29;20190;-43
2022/11/26 09:15:17;;;;;;;32.33;19.17;;;;;;;5.07;100.00;102666.88;4861705;29;20236;-44
2022/11/26 09:17:42;;;;;;;27.20;17.80;;;;;;;5.14;100.00;102679.34;4864023;29;20273;-44
2022/11/26 09:20:08;;;;;;;29.75;20.20;;;;;;;5.13;100.00;102679.31;4869809;29;20198;-44
2022/11/26 09:22:34;;;;;;;32.10;18.35;;;;;;;5.20;100.00;102665.25;4862372;29;20197;-43
2022/11/26 09:24:59;;;;;;;31.63;18.73;;;;;;;5.25;100.00;102665.34;4864784;29;20565;-42
2022/11/26 09:27:25;;;;;;;32.20;19.80;;;;;;;5.22;100.00;102681.22;4859218;29;20229;-47
2022/11/26 09:29:51;;;;;;;28.42;20.08;;;;;;;5.30;100.00;102668.94;4865602;29;20669;-48
2022/11/26 09:32:16;;;;;;;36.10;20.65;;;;;;;5.32;100.00;102670.72;4865692;29;20197;-46
2022/11/26 09:34:42;;;;;;;41.65;23.50;;;;;;;5.37;100.00;102677.00;4865327;28;20302;-48
2022/11/26 09:37:07;;;;;;;36.08;21.48;;;;;;;5.42;100.00;102682.34;4862199;29;20241;-46
2022/11/26 09:39:34;;;;;;;40.92;22.67;;;;;;;5.41;100.00;102682.38;4861516;29;20205;-48
2022/11/26 09:42:36;;;;;;;32.45;20.83;;;;;;;5.54;100.00;102692.28;4861723;29;20273;-48
2022/11/26 09:45:07;;;;;;;43.25;22.52;;;;;;;5.49;100.00;102694.88;4859070;29;20181;-47
2022/11/26 09:47:40;;;;;;;36.45;22.33;;;;;;;5.61;100.00;102702.09;4861309;29;20210;-45
2022/11/26 09:50:12;;;;;;;39.75;23.17;;;;;;;5.55;100.00;102702.03;4861547;29;20771;-46
2022/11/26 09:52:45;;;;;;;41.38;24.75;;;;;;;5.50;100.00;102709.94;4864053;29;20216;-47
2022/11/26 09:55:19;;;;;;;48.83;23.45;;;;;;;5.46;100.00;102707.22;4863766;29;20201;-46
2022/11/26 09:57:45;;;;;;;38.30;23.02;;;;;;;5.53;100.00;102702.03;4865017;29;20209;-47
2022/11/26 10:00:26;;;;;;;39.95;22.55;;;;;;;5.53;100.00;102703.78;4858007;29;20181;-46
2022/11/26 10:02:54;;;;;;;50.55;24.85;;;;;;;5.42;100.00;102713.38;4879999;29;20194;-45
2022/11/26 10:05:36;;;;;;;45.85;24.50;;;;;;;5.45;100.00;102721.41;4859526;29;20201;-47
2022/11/26 10:08:15;;;;;;;48.55;25.55;;;;;;;5.55;100.00;102713.56;4860048;29;20276;-46
2022/11/26 10:10:58;;;;;;;41.13;23.88;;;;;;;5.60;100.00;102710.97;4862718;29;20218;-45
2022/11/26 10:13:39;;;;;;;49.47;23.55;;;;;;;5.61;100.00;102711.84;4856663;29;20193;-48
2022/11/26 10:16:15;;;;;;;57.88;26.17;;;;;;;5.67;100.00;102714.59;4863653;29;20491;-46
2022/11/26 10:18:50;;;;;;;66.55;27.13;;;;;;;5.76;100.00;102725.34;4859228;29;20395;-47
2022/11/26 10:21:24;;;;;;;59.78;27.13;;;;;;;5.86;100.00;102721.94;4863877;29;20251;-46
2022/11/26 10:23:58;;;;;;;61.80;28.95;;;;;;;5.74;100.00;102725.31;4856964;29;20667;-46
2022/11/26 10:26:29;;;;;;;63.53;28.33;;;;;;;5.73;100.00;102726.22;4864724;29;20696;-49
2022/11/26 10:29:36;;;;;;;63.65;29.00;;;;;;;5.83;100.00;102721.88;4875234;29;20298;-47
2022/11/26 10:32:26;;;;;;;59.95;29.80;;;;;;;5.91;100.00;102720.19;4864896;29;20650;-48
2022/11/26 10:34:57;;;;;;;50.15;26.95;;;;;;;5.93;100.00;102721.13;4862471;29;20216;-44
2022/11/26 10:37:24;;;;;;;61.00;28.38;;;;;;;5.89;100.00;102715.75;4859790;29;20258;-46
2022/11/26 10:40:00;;;;;;;63.90;28.48;;;;;;;5.87;100.00;102726.34;4857996;29;20186;-46
2022/11/26 10:42:26;;;;;;;59.67;29.13;;;;;;;5.70;100.00;102728.81;4870041;29;20189;-47
2022/11/26 10:44:52;;;;;;;62.58;29.60;;;;;;;5.66;100.00;102726.97;4856595;29;20182;-47
2022/11/26 10:47:20;;;;;;;59.30;27.92;;;;;;;5.68;100.00;102730.56;4859495;29;20698;-46
2022/11/26 10:49:47;;;;;;;57.65;29.48;;;;;;;5.64;100.00;102728.75;4860779;29;20561;-47
2022/11/26 10:52:16;;;;;;;61.50;27.98;;;;;;;5.71;100.00;102722.63;4862385;29;20205;-46
2022/11/26 10:54:43;;;;;;;63.85;29.10;;;;;;;5.64;100.00;102731.41;4858868;29;20227;-46
2022/11/26 10:57:09;;;;;;;70.60;30.85;;;;;;;5.72;100.00;102726.19;4859456;29;20224;-53
2022/11/26 10:59:46;;;;;;;62.53;28.92;;;;;;;5.73;100.00;102728.88;4870119;29;20281;-47
2022/11/26 11:02:17;;;;;;;65.22;29.10;;;;;;;5.71;100.00;102735.03;4863758;29;20803;-46
2022/11/26 11:04:44;;;;;;;54.80;27.65;;;;;;;5.81;100.00;102733.38;4864479;29;20182;-45
2022/11/26 11:07:32;;;;;;;68.82;30.30;;;;;;;5.78;100.00;102727.13;4861887;29;21140;-47
2022/11/26 11:10:08;;;;;;;64.28;29.58;;;;;;;5.76;100.00;102728.00;4864820;29;20225;-45
2022/11/26 11:13:00;;;;;;;59.05;28.05;;;;;;;5.93;100.00;102736.19;4860438;29;20738;-46